Time;durP1;ratioP1;P1;durP2;ratioP2;P2;SDS_P1;SDS_P2;PMS_P1;PMS_P2;Temp;Humidity;BMP_temperature;BMP_pressure;BME280_temperature;BME280_humidity;BME280_pressure;Samples;Min_cycle;Max_cycle;Signal;HPM_P1;HPM_P2
2022/08/04 00:04:52;;;;;;;14.80;13.40;;;;;;;16.81;73.82;100048.96;213683;1274;140967;-63
2022/08/04 00:10:04;;;;;;;14.50;13.10;;;;;;;16.82;74.18;100051.77;214227;1274;141164;-63
2022/08/04 00:15:11;;;;;;;14.10;12.80;;;;;;;16.86;74.36;100052.34;215433;1274;143184;-63
2022/08/04 00:20:20;;;;;;;13.00;11.70;;;;;;;16.89;74.54;100048.63;214397;1275;142039;-63
2022/08/04 00:25:23;;;;;;;12.60;11.50;;;;;;;16.96;74.63;100045.30;214499;1274;141855;-63
2022/08/04 00:30:26;;;;;;;13.90;12.50;;;;;;;17.07;74.68;100047.85;216135;1274;140598;-63
2022/08/04 00:35:28;;;;;;;22.20;11.10;;;;;;;17.16;74.69;100047.50;214539;1274;140209;-63
2022/08/04 00:41:12;;;;;;;14.80;12.00;;;;;;;17.17;74.34;100048.85;215830;1274;140316;-62
2022/08/04 00:46:41;;;;;;;11.40;10.50;;;;;;;17.15;74.45;100048.20;214830;1275;142940;-63
2022/08/04 00:51:55;;;;;;;13.70;12.40;;;;;;;17.23;74.33;100047.13;214462;1274;141269;-63
2022/08/04 00:57:27;;;;;;;17.40;15.60;;;;;;;17.17;74.06;100049.45;214374;1274;141727;-62
2022/08/04 01:02:51;;;;;;;17.00;15.30;;;;;;;17.11;74.27;100049.04;214162;1274;140976;-62
2022/08/04 01:08:10;;;;;;;23.40;14.70;;;;;;;17.12;74.14;100047.04;214749;1274;141773;-62
2022/08/04 01:13:35;;;;;;;14.90;13.60;;;;;;;17.14;74.20;100050.57;214346;1277;141615;-62
2022/08/04 01:19:23;;;;;;;15.90;14.50;;;;;;;17.13;74.12;100052.67;213541;1274;142824;-62
2022/08/04 01:24:58;;;;;;;16.10;14.70;;;;;;;17.10;74.23;100058.14;213525;1274;142235;-61
2022/08/04 01:30:01;;;;;;;14.20;12.20;;;;;;;17.09;74.53;100057.23;213263;1274;141303;-63
2022/08/04 01:35:33;;;;;;;14.70;12.10;;;;;;;17.03;74.29;100060.45;213406;1274;141360;-64
2022/08/04 01:40:53;;;;;;;14.30;12.70;;;;;;;16.96;74.46;100068.52;213178;1274;141396;-63
2022/08/04 01:46:03;;;;;;;16.40;13.00;;;;;;;16.92;74.34;100065.77;214232;1274;221146;-63
2022/08/04 01:51:09;;;;;;;14.40;13.10;;;;;;;16.77;74.47;100064.53;213361;1274;141536;-63
2022/08/04 01:56:11;;;;;;;15.40;13.40;;;;;;;16.61;74.58;100059.52;215363;1274;141473;-64
2022/08/04 02:01:13;;;;;;;13.30;12.10;;;;;;;16.58;74.91;100063.59;213882;1274;142487;-63
2022/08/04 02:06:21;;;;;;;16.30;14.10;;;;;;;16.62;75.06;100060.05;215385;1274;141148;-63
2022/08/04 02:11:25;;;;;;;13.90;12.60;;;;;;;16.68;75.16;100064.77;215905;1274;141503;-64
2022/08/04 02:16:39;;;;;;;14.20;12.30;;;;;;;16.74;75.00;100062.53;216006;1274;140915;-64
2022/08/04 02:21:47;;;;;;;16.50;12.20;;;;;;;16.70;74.70;100059.66;216218;1274;140992;-64
2022/08/04 02:26:55;;;;;;;13.20;11.80;;;;;;;16.69;74.94;100060.20;216081;1274;140614;-64
2022/08/04 02:32:08;;;;;;;13.90;12.60;;;;;;;16.75;75.05;100058.27;215548;1274;141153;-63
2022/08/04 02:37:15;;;;;;;13.30;12.00;;;;;;;16.74;74.85;100055.31;214981;1274;141508;-62
2022/08/04 02:42:19;;;;;;;;;;;;;;;16.65;74.42;100047.80;215423;1274;141469;-63
2022/08/04 02:47:24;;;;;;;13.40;12.00;;;;;;;16.50;74.56;100044.90;214732;1274;127335;-65
2022/08/04 02:52:51;;;;;;;15.00;13.40;;;;;;;16.46;74.81;100040.91;213287;1275;141587;-63
2022/08/04 02:57:57;;;;;;;16.00;13.30;;;;;;;16.39;74.91;100036.80;214342;1274;140517;-60
2022/08/04 03:02:59;;;;;;;15.50;13.20;;;;;;;16.23;75.09;100037.61;213595;1274;141785;-63
2022/08/04 03:08:46;;;;;;;16.30;14.70;;;;;;;16.23;75.30;100044.11;213367;1275;142759;-64
2022/08/04 03:14:09;;;;;;;13.60;12.30;;;;;;;16.12;75.20;100041.09;214325;1274;141425;-64
2022/08/04 03:19:41;;;;;;;15.20;13.80;;;;;;;16.14;75.57;100044.48;213943;1274;142815;-63
2022/08/04 03:24:54;;;;;;;13.40;12.00;;;;;;;16.20;75.79;100050.41;213289;1274;142019;-63
2022/08/04 03:30:05;;;;;;;15.10;13.60;;;;;;;16.21;75.86;100054.77;213994;1274;141109;-64
2022/08/04 03:35:51;;;;;;;14.50;13.00;;;;;;;16.21;75.66;100058.70;214094;1274;141791;-64
2022/08/04 03:41:17;;;;;;;14.20;12.80;;;;;;;16.08;75.65;100058.86;213865;1274;140625;-63
2022/08/04 03:46:55;;;;;;;13.90;12.60;;;;;;;16.14;75.99;100057.40;214617;1274;141054;-64
2022/08/04 03:58:21;;;;;;;14.70;13.10;;;;;;;16.68;75.85;100065.30;213485;1274;140593;-61
2022/08/04 04:04:05;;;;;;;15.90;14.40;;;;;;;16.88;75.56;100069.86;214004;1274;142323;-61
2022/08/04 04:09:21;;;;;;;15.30;13.70;;;;;;;17.07;75.70;100072.78;215700;1274;140017;-61
2022/08/04 04:15:27;;;;;;;14.30;13.00;;;;;;;17.34;75.55;100078.59;214074;1274;140887;-63
2022/08/04 04:20:57;;;;;;;15.10;13.60;;;;;;;17.93;75.33;100076.56;213791;1282;141661;-62
2022/08/04 04:26:17;;;;;;;17.70;15.80;;;;;;;18.73;74.74;100081.90;215143;1274;141162;-61
2022/08/04 04:31:37;;;;;;;19.10;17.30;;;;;;;19.27;74.21;100083.20;215614;1274;141936;-61
2022/08/04 04:37:08;;;;;;;19.50;17.60;;;;;;;19.34;74.04;100081.45;215884;1274;142579;-62
2022/08/04 04:42:26;;;;;;;20.00;18.00;;;;;;;19.60;73.69;100083.71;214961;1274;142178;-61
2022/08/04 04:47:50;;;;;;;20.70;18.80;;;;;;;19.60;73.79;100081.52;213841;1274;141511;-62
2022/08/04 04:53:28;;;;;;;19.80;18.00;;;;;;;20.15;73.42;100075.92;214118;1274;141837;-62
2022/08/04 04:58:33;;;;;;;21.40;17.60;;;;;;;20.10;73.49;100076.42;214221;1274;142598;-62
2022/08/04 05:03:48;;;;;;;20.00;18.00;;;;;;;20.05;73.59;100080.77;214192;1274;142677;-63
2022/08/04 05:09:03;;;;;;;19.30;17.60;;;;;;;20.02;73.89;100082.04;214032;1274;141836;-63
2022/08/04 05:14:13;;;;;;;16.60;15.10;;;;;;;20.01;73.89;100088.70;213186;1274;142135;-63
2022/08/04 05:19:47;;;;;;;35.70;19.70;;;;;;;20.02;73.86;100087.55;214260;1274;140785;-62
2022/08/04 05:24:59;;;;;;;19.10;17.40;;;;;;;20.94;72.82;100088.48;213749;1276;140434;-64
2022/08/04 05:30:06;;;;;;;17.40;15.60;;;;;;;23.78;69.26;100087.48;214310;1274;212012;-62
2022/08/04 05:35:14;;;;;;;16.30;14.80;;;;;;;25.91;66.37;100091.04;213958;1274;141360;-64
2022/08/04 05:40:39;;;;;;;16.30;14.90;;;;;;;28.98;61.41;100096.73;214281;1274;139853;-61
2022/08/04 05:45:47;;;;;;;12.90;11.30;;;;;;;30.72;58.06;100100.36;213501;1274;139807;-63
2022/08/04 05:50:51;;;;;;;12.20;11.20;;;;;;;32.24;54.12;100105.45;213628;1274;140862;-62
2022/08/04 05:55:55;;;;;;;10.40;8.80;;;;;;;32.49;53.22;100107.06;213686;1274;140827;-63
2022/08/04 06:01:02;;;;;;;10.50;9.60;;;;;;;33.06;50.30;100108.30;214346;1274;141612;-61
2022/08/04 06:06:06;;;;;;;9.30;8.40;;;;;;;34.00;49.43;100107.84;214519;1276;140056;-64
2022/08/04 06:11:12;;;;;;;8.40;7.70;;;;;;;33.29;48.48;100114.23;213859;1275;230365;-63
2022/08/04 06:16:21;;;;;;;10.00;9.00;;;;;;;31.80;47.83;100114.99;215460;1274;141373;-64
2022/08/04 06:21:37;;;;;;;9.70;8.90;;;;;;;30.41;48.58;100111.50;214470;1274;141476;-64
2022/08/04 06:26:41;;;;;;;10.60;9.30;;;;;;;29.50;49.91;100110.91;216226;1274;140282;-62
2022/08/04 06:31:46;;;;;;;10.90;9.70;;;;;;;29.00;50.91;100110.27;216046;1276;142020;-63
2022/08/04 06:37:10;;;;;;;12.00;11.00;;;;;;;28.59;51.60;100117.30;215632;1274;139722;-63
2022/08/04 06:42:36;;;;;;;13.70;12.50;;;;;;;28.33;52.42;100119.31;215532;1274;140392;-63
2022/08/04 06:47:41;;;;;;;12.20;11.20;;;;;;;28.05;53.12;100119.88;215070;1274;140827;-63
2022/08/04 06:52:45;;;;;;;13.20;11.90;;;;;;;27.82;53.38;100119.77;213092;1275;141147;-62
2022/08/04 06:57:48;;;;;;;19.70;11.90;;;;;;;27.94;53.97;100121.02;215210;1274;140695;-62
2022/08/04 07:02:53;;;;;;;12.40;11.30;;;;;;;28.33;53.62;100120.09;214257;1276;140536;-62
2022/08/04 07:07:57;;;;;;;;;;;;;;;29.24;52.68;100119.41;213504;1274;140330;-64
2022/08/04 07:13:03;;;;;;;14.80;11.00;;;;;;;30.75;51.21;100120.74;214734;1275;126597;-63
2022/08/04 07:18:04;;;;;;;10.10;9.10;;;;;;;31.97;49.54;100122.17;214431;1274;140683;-64
2022/08/04 07:23:10;;;;;;;8.30;7.60;;;;;;;32.55;48.33;100122.99;214397;1274;140815;-64
2022/08/04 07:28:13;;;;;;;8.00;7.40;;;;;;;32.84;46.71;100127.29;214092;1274;139982;-65
2022/08/04 07:33:16;;;;;;;8.00;7.40;;;;;;;33.04;46.98;100130.21;213129;1277;956654;-65
2022/08/04 07:38:20;;;;;;;8.30;7.70;;;;;;;33.15;46.09;100129.41;214466;1274;139868;-64
2022/08/04 07:43:31;;;;;;;7.40;6.80;;;;;;;33.17;45.74;100131.33;214397;1274;140254;-64
2022/08/04 07:48:34;;;;;;;7.60;7.00;;;;;;;33.33;45.05;100129.46;213191;1274;140178;-64
2022/08/04 07:53:38;;;;;;;8.60;7.70;;;;;;;33.30;44.79;100126.45;214983;1274;140062;-64
2022/08/04 07:58:59;;;;;;;7.60;7.00;;;;;;;33.36;44.45;100122.69;213007;1277;139284;-65
2022/08/04 08:04:09;;;;;;;7.60;6.80;;;;;;;33.05;43.72;100117.52;213821;1277;140753;-64
2022/08/04 08:09:15;;;;;;;8.20;7.50;;;;;;;32.96;44.14;100115.30;215558;1275;140123;-65
2022/08/04 08:14:20;;;;;;;7.80;7.10;;;;;;;32.89;43.73;100108.10;215255;1277;139918;-66
2022/08/04 08:19:23;;;;;;;9.30;8.50;;;;;;;32.92;44.27;100110.66;214784;1276;139352;-66
2022/08/04 08:24:31;;;;;;;9.70;8.80;;;;;;;33.17;44.34;100108.35;215461;1274;141233;-66
2022/08/04 08:29:37;;;;;;;8.50;7.90;;;;;;;33.22;44.08;100106.98;214737;1277;140028;-65
2022/08/04 08:34:41;;;;;;;9.50;8.70;;;;;;;32.90;43.39;100109.45;216051;1276;140561;-66
2022/08/04 08:39:57;;;;;;;8.20;7.40;;;;;;;32.89;43.77;100107.87;215835;1274;139728;-66
2022/08/04 08:45:06;;;;;;;8.60;7.40;;;;;;;33.21;43.13;100110.92;214939;1277;140508;-65
2022/08/04 08:50:32;;;;;;;6.10;5.40;;;;;;;33.43;42.50;100112.52;214148;1277;140211;-65
2022/08/04 08:55:52;;;;;;;7.90;7.30;;;;;;;33.19;41.66;100110.36;215924;1276;140340;-66
2022/08/04 09:01:05;;;;;;;7.10;6.60;;;;;;;32.84;41.70;100110.55;214615;1275;140097;-66
2022/08/04 09:06:33;;;;;;;6.90;6.30;;;;;;;32.95;42.57;100112.28;214076;1276;139889;-65
2022/08/04 09:11:55;;;;;;;6.90;6.10;;;;;;;33.05;42.01;100111.05;214290;1277;139687;-65
2022/08/04 09:17:04;;;;;;;6.60;6.10;;;;;;;33.22;41.58;100110.55;214313;1276;140264;-66
2022/08/04 09:22:19;;;;;;;6.30;5.70;;;;;;;32.55;40.69;100114.16;213455;1277;140306;-66
2022/08/04 09:27:29;;;;;;;6.00;5.60;;;;;;;32.46;41.91;100113.66;213560;1276;141892;-64
2022/08/04 09:32:40;;;;;;;6.00;5.60;;;;;;;32.62;41.29;100111.59;213615;1274;140566;-64
2022/08/04 09:38:11;;;;;;;6.90;6.20;;;;;;;32.37;40.98;100105.34;213302;1275;140357;-64
2022/08/04 09:43:32;;;;;;;6.40;5.90;;;;;;;32.13;40.27;100100.45;214639;1274;140850;-65
2022/08/04 09:49:04;;;;;;;5.70;5.20;;;;;;;31.90;40.76;100095.69;214215;1274;140021;-65
2022/08/04 09:54:38;;;;;;;6.80;6.30;;;;;;;32.31;40.82;100098.06;215841;1274;140461;-66
2022/08/04 09:59:52;;;;;;;6.50;5.80;;;;;;;32.67;40.53;100089.74;214608;1274;140311;-67
2022/08/04 10:04:58;;;;;;;6.30;5.80;;;;;;;32.45;39.78;100087.94;214955;1275;140937;-67
2022/08/04 10:10:40;;;;;;;5.90;5.50;;;;;;;32.02;39.60;100090.52;213451;1274;140255;-66
2022/08/04 10:16:16;;;;;;;6.40;6.00;;;;;;;31.94;40.17;100090.08;214439;1274;139489;-66
2022/08/04 10:21:30;;;;;;;6.90;6.50;;;;;;;32.26;40.80;100084.20;213563;1274;139759;-66
2022/08/04 10:26:55;;;;;;;6.10;5.60;;;;;;;32.63;40.61;100081.10;216029;1274;141826;-66
2022/08/04 10:32:08;;;;;;;7.50;6.90;;;;;;;32.99;40.11;100075.55;215485;1274;140132;-67
2022/08/04 10:37:29;;;;;;;6.60;6.10;;;;;;;32.83;38.88;100068.89;214477;1274;140053;-66
2022/08/04 10:43:03;;;;;;;6.90;6.10;;;;;;;32.78;40.14;100071.43;214667;1274;140123;-66
2022/08/04 10:48:20;;;;;;;8.70;4.50;;;;;;;32.98;39.19;100061.27;213414;1274;140288;-65
2022/08/04 10:53:39;;;;;;;5.60;5.20;;;;;;;32.80;38.22;100060.09;215533;1274;141526;-66
2022/08/04 10:58:48;;;;;;;5.10;4.80;;;;;;;32.68;37.97;100059.14;213535;1274;139970;-66
2022/08/04 11:03:59;;;;;;;5.10;4.80;;;;;;;32.60;38.13;100048.25;213502;1274;140211;-65
2022/08/04 11:09:05;;;;;;;5.30;4.90;;;;;;;32.78;38.20;100043.91;214383;1274;139897;-66
2022/08/04 11:14:21;;;;;;;5.90;5.20;;;;;;;32.86;37.86;100047.80;214438;1274;139505;-66
2022/08/04 11:19:57;;;;;;;5.70;5.30;;;;;;;32.76;38.08;100044.82;213981;1274;140889;-66
2022/08/04 11:25:27;;;;;;;5.70;5.30;;;;;;;32.57;37.82;100045.69;213934;1274;140511;-66
2022/08/04 11:30:36;;;;;;;7.00;5.70;;;;;;;32.40;37.87;100046.42;213825;1274;140787;-66
2022/08/04 11:36:02;;;;;;;4.50;4.10;;;;;;;32.56;38.09;100042.35;214198;1274;139630;-66
2022/08/04 11:41:10;;;;;;;4.70;4.40;;;;;;;32.52;37.53;100044.44;213754;1274;139446;-66
2022/08/04 11:46:29;;;;;;;6.00;5.50;;;;;;;32.32;37.56;100035.96;214895;1274;139926;-66
2022/08/04 11:51:35;;;;;;;6.30;5.70;;;;;;;32.08;37.37;100032.77;214612;1274;140089;-66
2022/08/04 11:56:39;;;;;;;4.70;4.40;;;;;;;32.01;37.82;100032.20;215112;1274;140038;-66
2022/08/04 12:02:00;;;;;;;5.20;4.80;;;;;;;32.13;37.88;100028.27;214245;1277;139416;-65
2022/08/04 12:07:13;;;;;;;5.90;4.70;;;;;;;32.24;37.79;100023.57;215372;1274;140223;-66
2022/08/04 12:12:51;;;;;;;4.60;4.30;;;;;;;32.21;37.34;100027.77;215999;1274;139958;-69
2022/08/04 12:18:20;;;;;;;5.50;4.60;;;;;;;32.17;37.20;100021.62;215923;1276;139481;-68
2022/08/04 12:23:35;;;;;;;8.50;5.40;;;;;;;32.24;36.89;100024.03;215970;1274;139708;-68
2022/08/04 12:28:41;;;;;;;4.90;4.50;;;;;;;31.96;36.63;100018.89;216064;1274;139368;-68
2022/08/04 12:34:12;;;;;;;5.00;4.50;;;;;;;32.08;36.66;100013.17;215823;1274;140554;-67
2022/08/04 12:39:17;;;;;;;6.20;4.70;;;;;;;32.20;37.15;100009.71;214999;1276;140952;-66
2022/08/04 12:44:21;;;;;;;5.00;4.60;;;;;;;32.24;36.61;100006.77;214311;1274;140695;-65
2022/08/04 12:49:43;;;;;;;4.30;4.00;;;;;;;32.12;36.50;100001.55;213606;1274;140954;-66
2022/08/04 12:55:04;;;;;;;4.80;4.50;;;;;;;32.00;36.53;100001.06;214914;1274;140494;-66
2022/08/04 13:00:08;;;;;;;3.60;3.40;;;;;;;31.93;36.51;99999.07;214271;1274;139837;-66
2022/08/04 13:05:13;;;;;;;3.60;3.40;;;;;;;31.98;36.83;99996.94;214279;1274;140874;-66
2022/08/04 13:10:22;;;;;;;4.50;4.00;;;;;;;32.02;36.44;99989.99;214193;1274;140297;-65
2022/08/04 13:15:32;;;;;;;4.10;3.80;;;;;;;32.07;36.32;99987.08;214129;1274;141005;-65
2022/08/04 13:21:07;;;;;;;4.60;4.30;;;;;;;31.82;36.06;99986.23;213996;1274;141589;-65
2022/08/04 13:26:22;;;;;;;3.60;3.40;;;;;;;31.73;35.88;99977.42;213863;1274;141840;-65
2022/08/04 13:31:50;;;;;;;4.10;3.80;;;;;;;31.64;35.60;99972.39;213966;1274;141125;-65
2022/08/04 13:36:57;;;;;;;3.80;3.60;;;;;;;31.71;35.91;99966.08;213389;1274;140550;-65
2022/08/04 13:42:03;;;;;;;3.80;3.60;;;;;;;31.74;35.94;99963.21;213296;1274;140118;-65
2022/08/04 13:47:11;;;;;;;4.10;3.80;;;;;;;31.67;36.24;99968.13;213630;1274;141582;-64
2022/08/04 13:52:16;;;;;;;4.10;3.80;;;;;;;31.50;36.11;99965.79;214141;1274;140872;-65
2022/08/04 13:57:26;;;;;;;4.60;3.90;;;;;;;31.56;36.23;99958.02;213877;1274;142060;-65
2022/08/04 14:02:41;;;;;;;4.80;3.70;;;;;;;31.47;36.03;99952.38;213894;1274;140173;-64
2022/08/04 14:07:53;;;;;;;4.40;4.10;;;;;;;31.38;36.19;99948.20;215404;1274;140717;-65
2022/08/04 14:12:56;;;;;;;4.10;3.70;;;;;;;31.25;36.23;99947.13;213294;1274;141204;-65
2022/08/04 14:18:22;;;;;;;4.20;4.00;;;;;;;31.18;36.68;99952.13;213935;1274;140367;-66
2022/08/04 14:23:26;;;;;;;3.70;3.50;;;;;;;31.14;36.77;99943.17;214511;1274;140297;-66
2022/08/04 14:28:34;;;;;;;3.70;3.50;;;;;;;31.14;36.58;99937.36;216028;1272;139325;-66
2022/08/04 14:33:57;;;;;;;3.50;3.20;;;;;;;31.19;36.18;99937.27;216285;1274;140473;-66
2022/08/04 14:39:11;;;;;;;4.00;3.70;;;;;;;31.22;36.36;99933.77;216117;1274;139816;-66
2022/08/04 14:44:14;;;;;;;4.20;3.90;;;;;;;31.19;36.21;99933.02;215446;1274;160329;-68
2022/08/04 14:49:16;;;;;;;4.00;3.80;;;;;;;31.10;36.23;99930.19;214713;1276;140295;-66
2022/08/04 14:54:31;;;;;;;6.90;4.70;;;;;;;31.01;36.06;99923.50;215966;1274;139515;-66
2022/08/04 14:59:48;;;;;;;4.50;4.20;;;;;;;30.90;36.04;99924.95;213283;1274;140041;-65
2022/08/04 15:05:03;;;;;;;6.90;4.00;;;;;;;30.78;35.97;99921.44;215363;1274;139614;-65
2022/08/04 15:10:26;;;;;;;4.20;3.90;;;;;;;30.58;36.10;99920.73;214476;1274;140332;-65
2022/08/04 15:15:29;;;;;;;6.00;5.10;;;;;;;30.40;36.13;99916.21;213748;1274;140895;-65
2022/08/04 15:20:41;;;;;;;4.50;4.20;;;;;;;30.41;36.40;99917.96;213271;1274;140532;-64
2022/08/04 15:25:49;;;;;;;4.30;3.90;;;;;;;30.44;36.54;99917.32;214554;1274;140894;-65
2022/08/04 15:30:53;;;;;;;5.80;4.30;;;;;;;30.41;36.71;99915.14;213989;1274;141611;-65
2022/08/04 15:36:14;;;;;;;4.60;4.30;;;;;;;30.29;36.54;99918.03;214081;1274;140644;-64
2022/08/04 15:41:30;;;;;;;10.90;5.00;;;;;;;30.29;36.53;99913.62;213326;1274;140676;-64
2022/08/04 15:46:39;;;;;;;5.20;4.90;;;;;;;30.22;37.03;99912.63;213662;1275;141487;-65
2022/08/04 15:51:46;;;;;;;10.80;5.20;;;;;;;30.12;36.66;99908.17;214063;1274;141065;-64
2022/08/04 15:56:50;;;;;;;4.80;4.50;;;;;;;29.91;37.07;99898.98;213879;1274;141040;-65
2022/08/04 16:02:32;;;;;;;4.60;4.20;;;;;;;29.73;37.45;99895.95;213257;1274;140723;-64
2022/08/04 16:08:10;;;;;;;4.90;4.60;;;;;;;29.70;37.78;99893.42;213781;1274;141586;-65
2022/08/04 16:13:17;;;;;;;7.20;4.70;;;;;;;29.54;37.84;99886.58;214305;1274;141269;-64
2022/08/04 16:18:36;;;;;;;4.80;4.40;;;;;;;29.46;37.94;99887.14;215279;1275;139769;-65
2022/08/04 16:23:50;;;;;;;4.70;4.40;;;;;;;29.38;38.68;99885.45;215326;1274;139197;-65
2022/08/04 16:28:57;;;;;;;4.10;3.80;;;;;;;29.37;39.21;99887.08;216001;1274;139820;-65
2022/08/04 16:34:00;;;;;;;5.40;4.50;;;;;;;29.27;38.89;99882.92;216082;1275;140061;-65
2022/08/04 16:39:22;;;;;;;5.50;5.00;;;;;;;29.20;39.04;99882.98;215965;1274;140501;-65
2022/08/04 16:44:28;;;;;;;6.50;5.60;;;;;;;29.06;39.10;99886.20;215477;1274;140694;-65
2022/08/04 16:50:04;;;;;;;5.30;4.90;;;;;;;28.86;39.59;99883.50;214718;1274;140376;-65
2022/08/04 16:55:08;;;;;;;5.10;4.70;;;;;;;28.64;40.07;99880.70;214157;1274;139771;-65
2022/08/04 17:00:12;;;;;;;22.60;5.80;;;;;;;28.51;40.50;99884.48;214025;1274;139312;-64
2022/08/04 17:05:23;;;;;;;8.40;4.80;;;;;;;28.34;40.94;99882.32;214930;1274;142012;-65
2022/08/04 17:10:45;;;;;;;5.60;5.10;;;;;;;28.11;41.34;99887.75;214101;1274;140008;-65
2022/08/04 17:15:50;;;;;;;6.10;5.50;;;;;;;27.92;41.63;99889.14;214688;1274;139578;-65
2022/08/04 17:20:55;;;;;;;6.40;5.90;;;;;;;27.69;42.59;99889.50;213931;1274;139329;-64
2022/08/04 17:26:31;;;;;;;6.20;5.80;;;;;;;27.57;44.24;99893.30;214054;1274;141084;-65
2022/08/04 17:31:44;;;;;;;5.90;5.40;;;;;;;27.41;45.21;99889.77;214173;1274;140812;-65
2022/08/04 17:36:48;;;;;;;6.40;5.10;;;;;;;27.24;45.64;99888.75;213692;1275;139337;-64
2022/08/04 17:41:57;;;;;;;6.80;6.30;;;;;;;27.06;46.21;99886.84;213826;1275;140785;-64
2022/08/04 17:47:19;;;;;;;6.50;6.00;;;;;;;26.88;46.70;99885.51;213359;1277;139316;-64
2022/08/04 17:52:24;;;;;;;8.70;5.60;;;;;;;26.67;47.50;99886.04;214147;1274;140077;-65
2022/08/04 17:58:08;;;;;;;6.30;5.80;;;;;;;26.43;48.24;99883.58;214178;1274;139273;-64
2022/08/04 18:03:23;;;;;;;5.20;4.80;;;;;;;26.20;48.72;99886.62;214526;1274;140062;-65
2022/08/04 18:08:31;;;;;;;;;;;;;;;25.96;48.54;99884.77;214911;1274;139467;-65
2022/08/04 18:13:52;;;;;;;6.50;5.40;;;;;;;25.71;48.90;99889.92;215632;1274;126283;-64
2022/08/04 18:19:13;;;;;;;6.20;5.80;;;;;;;25.55;49.20;99890.30;213422;1274;139718;-64
2022/08/04 18:24:17;;;;;;;7.40;5.60;;;;;;;25.36;49.60;99894.00;215135;1276;140102;-65
2022/08/04 18:29:37;;;;;;;7.10;5.80;;;;;;;25.17;49.94;99901.41;215084;1275;141011;-64
2022/08/04 18:34:42;;;;;;;6.20;5.40;;;;;;;24.99;50.33;99902.71;215601;1274;139394;-65
2022/08/04 18:39:57;;;;;;;;;;;;;;;24.78;50.66;99907.59;216339;1274;139975;-65
2022/08/04 18:45:13;;;;;;;7.90;5.60;;;;;;;24.54;50.95;99906.54;216797;1274;126249;-65
2022/08/04 18:50:17;;;;;;;7.30;6.00;;;;;;;24.37;51.37;99905.48;216219;1274;140566;-65
2022/08/04 18:55:41;;;;;;;6.10;5.70;;;;;;;24.20;51.65;99905.15;216153;1274;139528;-65
2022/08/04 19:01:00;;;;;;;6.30;5.90;;;;;;;24.03;52.05;99915.91;214766;1274;139417;-64
2022/08/04 19:06:03;;;;;;;9.10;6.20;;;;;;;23.87;52.14;99914.86;215458;1274;140149;-65
2022/08/04 19:11:10;;;;;;;6.30;5.80;;;;;;;23.73;52.29;99914.11;214919;1274;140732;-65
2022/08/04 19:16:36;;;;;;;;;;;;;;;23.55;52.38;99916.39;214655;1276;140802;-64
2022/08/04 19:21:43;;;;;;;6.70;5.80;;;;;;;23.35;52.67;99917.81;214391;1274;126513;-64
2022/08/04 19:27:06;;;;;;;6.50;6.00;;;;;;;23.18;53.05;99923.80;214843;1274;139214;-65
2022/08/04 19:32:12;;;;;;;6.80;6.10;;;;;;;23.01;53.49;99922.95;210110;1274;5482470;-65
2022/08/04 19:37:18;;;;;;;6.70;6.10;;;;;;;22.86;53.64;99924.27;214508;1274;140679;-64
2022/08/04 19:42:44;;;;;;;7.40;6.20;;;;;;;22.74;53.93;99931.14;214117;1274;139497;-64
2022/08/04 19:47:53;;;;;;;9.00;5.80;;;;;;;22.61;54.10;99933.18;214075;1275;139825;-64
2022/08/04 19:53:18;;;;;;;6.80;5.80;;;;;;;22.47;54.38;99935.59;213143;1274;140546;-65
2022/08/04 19:58:30;;;;;;;5.90;5.40;;;;;;;22.31;54.65;99933.32;213198;1274;143643;-64
2022/08/04 20:03:36;;;;;;;6.40;5.90;;;;;;;22.17;55.13;99938.70;213506;1276;140053;-65
2022/08/04 20:09:00;;;;;;;6.50;5.90;;;;;;;22.04;55.65;99940.77;214121;1274;141170;-65
2022/08/04 20:14:02;;;;;;;5.60;5.10;;;;;;;21.92;55.78;99940.48;213480;1274;140278;-65
2022/08/04 20:19:08;;;;;;;13.00;5.90;;;;;;;21.80;56.08;99939.31;213413;1274;139790;-65
2022/08/04 20:24:16;;;;;;;5.60;5.20;;;;;;;21.69;56.07;99937.77;214882;1274;141561;-65
2022/08/04 20:29:39;;;;;;;6.40;5.60;;;;;;;21.57;56.13;99944.25;214400;1274;139993;-64
2022/08/04 20:34:49;;;;;;;9.60;5.90;;;;;;;21.47;56.34;99945.59;215974;1274;140104;-65
2022/08/04 20:39:59;;;;;;;12.20;6.00;;;;;;;21.35;56.51;99943.39;216032;1274;140691;-63
2022/08/04 20:45:03;;;;;;;6.20;5.70;;;;;;;21.24;56.93;99942.56;215900;1274;139877;-64
2022/08/04 20:50:07;;;;;;;11.80;5.80;;;;;;;21.16;56.91;99945.91;215490;1274;139720;-63
2022/08/04 20:55:12;;;;;;;7.00;6.20;;;;;;;21.10;57.33;99945.88;213383;1274;139896;-63
2022/08/04 21:00:17;;;;;;;6.10;5.50;;;;;;;20.97;57.65;99948.19;214802;1274;139672;-62
2022/08/04 21:05:33;;;;;;;;;;;;;;;20.85;58.11;99947.58;212993;1274;140824;-61
2022/08/04 21:10:36;;;;;;;6.30;5.70;;;;;;;20.71;58.39;99949.83;213659;1277;126985;-62
2022/08/04 21:15:38;;;;;;;7.10;6.50;;;;;;;20.61;58.60;99945.82;215097;1274;140289;-63
2022/08/04 21:21:01;;;;;;;9.60;6.00;;;;;;;20.53;59.33;99949.06;214519;1274;140279;-63
2022/08/04 21:26:04;;;;;;;8.40;5.70;;;;;;;20.42;59.56;99943.41;215419;1274;140066;-61
2022/08/04 21:31:14;;;;;;;7.20;6.60;;;;;;;20.30;59.62;99946.33;214041;1274;140557;-62
2022/08/04 21:36:24;;;;;;;6.10;5.70;;;;;;;20.17;59.81;99941.11;212876;1274;141002;-63
2022/08/04 21:41:33;;;;;;;6.70;6.10;;;;;;;20.05;60.22;99937.27;213801;1274;141895;-61
2022/08/04 21:46:56;;;;;;;7.30;6.40;;;;;;;19.95;60.52;99938.38;213891;1274;140904;-62
2022/08/04 21:51:59;;;;;;;7.80;6.30;;;;;;;19.82;60.69;99940.02;214127;1274;140547;-63
2022/08/04 21:57:10;;;;;;;11.70;7.00;;;;;;;19.73;61.01;99937.77;213225;1274;141448;-61
2022/08/04 22:02:12;;;;;;;8.70;6.80;;;;;;;19.63;61.41;99932.58;213833;1276;140831;-62
2022/08/04 22:07:15;;;;;;;9.80;6.90;;;;;;;19.47;61.60;99933.42;213757;1274;140018;-60
2022/08/04 22:12:25;;;;;;;9.20;7.00;;;;;;;19.30;61.75;99937.74;213204;1274;164291;-64
2022/08/04 22:17:31;;;;;;;6.20;5.60;;;;;;;19.18;61.99;99936.75;214337;1275;141158;-62
2022/08/04 22:22:38;;;;;;;9.20;7.10;;;;;;;19.13;62.47;99931.72;214023;1274;162232;-62
2022/08/04 22:27:59;;;;;;;11.10;6.60;;;;;;;19.08;62.41;99928.42;214417;1274;140426;-64
2022/08/04 22:33:06;;;;;;;10.30;7.40;;;;;;;19.01;62.81;99930.11;215029;1275;141297;-63
2022/08/04 22:38:10;;;;;;;7.90;6.70;;;;;;;18.93;63.02;99932.14;216233;1274;140725;-63
2022/08/04 22:43:34;;;;;;;7.50;6.50;;;;;;;18.88;63.09;99933.92;215969;1274;141532;-63
2022/08/04 22:48:39;;;;;;;;;;;;;;;18.86;63.45;99929.62;216128;1274;222107;-62
2022/08/04 22:53:45;;;;;;;7.00;6.30;;;;;;;18.81;63.55;99925.51;216296;1274;125556;-63
2022/08/04 22:58:51;;;;;;;13.10;6.50;;;;;;;18.76;63.40;99925.21;215097;1274;139430;-62
2022/08/04 23:03:55;;;;;;;8.00;7.10;;;;;;;18.67;63.43;99922.66;214427;1274;163721;-61
2022/08/04 23:08:58;;;;;;;5.50;5.00;;;;;;;18.58;63.57;99920.95;214574;1274;141266;-61
2022/08/04 23:14:01;;;;;;;7.50;6.00;;;;;;;18.49;63.73;99911.44;214469;1274;140701;-61
2022/08/04 23:19:03;;;;;;;7.50;6.80;;;;;;;18.44;64.01;99909.25;213219;1274;141225;-63
2022/08/04 23:24:13;;;;;;;5.90;5.50;;;;;;;18.32;63.99;99906.92;213395;1277;140478;-63
2022/08/04 23:29:15;;;;;;;24.70;7.40;;;;;;;18.22;64.12;99909.44;213712;1274;141369;-63
2022/08/04 23:34:18;;;;;;;11.60;6.50;;;;;;;18.19;64.46;99909.50;213895;1274;141657;-63
2022/08/04 23:39:21;;;;;;;7.90;6.80;;;;;;;18.17;64.66;99907.52;213952;1277;139878;-62
2022/08/04 23:44:23;;;;;;;8.00;7.30;;;;;;;18.09;64.70;99906.66;214395;1274;140337;-64
2022/08/04 23:49:30;;;;;;;11.40;8.30;;;;;;;17.84;64.99;99899.15;213507;1274;141845;-63
2022/08/04 23:54:49;;;;;;;7.90;6.70;;;;;;;17.75;65.37;99894.07;213355;1274;141009;-64